Time;durP1;ratioP1;P1;durP2;ratioP2;P2;SDS_P1;SDS_P2;PMS_P1;PMS_P2;Temp;Humidity;BMP_temperature;BMP_pressure;BME280_temperature;BME280_humidity;BME280_pressure;Samples;Min_cycle;Max_cycle;Signal;HPM_P1;HPM_P2
2022/05/01 00:01:39;;;;;;;8.50;7.60;;;;;;;14.19;58.18;94890.16;5074623;28;20409;-73
2022/05/01 00:04:05;;;;;;;9.50;8.00;;;;;;;14.35;57.00;94885.44;5074873;28;20179;-73
2022/05/01 00:06:34;;;;;;;8.23;7.50;;;;;;;14.17;58.61;94894.00;5081084;28;20600;-72
2022/05/01 00:09:00;;;;;;;7.93;7.20;;;;;;;14.41;56.85;94889.84;5079333;28;20220;-74
2022/05/01 00:11:26;;;;;;;10.03;8.20;;;;;;;14.28;57.19;94889.91;5067870;28;20453;-73
2022/05/01 00:13:52;;;;;;;8.50;7.70;;;;;;;14.01;58.91;94887.41;5078640;28;20451;-73
2022/05/01 00:16:18;;;;;;;9.50;8.50;;;;;;;14.22;58.03;94876.56;5071515;28;20952;-73
2022/05/01 00:18:44;;;;;;;8.17;7.47;;;;;;;14.31;58.18;94878.97;5074163;28;20182;-73
2022/05/01 00:21:10;;;;;;;7.77;7.03;;;;;;;13.84;59.20;94879.19;5069975;28;20174;-74
2022/05/01 00:23:36;;;;;;;8.30;7.10;;;;;;;14.21;57.97;94880.22;5073585;28;20508;-73
2022/05/01 00:26:04;;;;;;;8.40;7.60;;;;;;;14.37;57.22;94872.84;5075769;28;20185;-73
2022/05/01 00:28:32;;;;;;;7.73;6.93;;;;;;;14.35;58.11;94869.63;5088718;28;20641;-73
2022/05/01 00:30:58;;;;;;;7.73;6.87;;;;;;;14.42;57.54;94870.41;5073407;28;20455;-72
2022/05/01 00:36:25;;;;;;;7.77;7.17;;;;;;;13.92;58.89;94870.25;5079898;28;20446;-73
2022/05/01 00:38:58;;;;;;;7.90;6.87;;;;;;;13.91;58.48;94863.38;5089050;28;20425;-73
2022/05/01 00:41:26;;;;;;;7.50;6.90;;;;;;;13.86;58.24;94856.91;5076405;28;20412;-73
2022/05/01 00:44:06;;;;;;;6.93;6.33;;;;;;;13.74;58.78;94860.41;5051217;28;20425;-73
2022/05/01 00:46:41;;;;;;;8.23;6.90;;;;;;;13.93;59.10;94861.34;5059568;28;20517;-73
2022/05/01 00:49:10;;;;;;;6.97;6.50;;;;;;;13.96;58.12;94866.19;5079049;28;20446;-73
2022/05/01 00:51:46;;;;;;;8.17;7.57;;;;;;;13.28;60.33;94865.56;5068468;28;20460;-72
2022/05/01 00:54:12;;;;;;;9.10;8.30;;;;;;;13.93;59.22;94863.97;5076603;28;20486;-73
2022/05/01 00:56:40;;;;;;;9.07;8.23;;;;;;;13.72;59.49;94863.25;5071391;28;20486;-73
2022/05/01 00:59:06;;;;;;;8.80;8.10;;;;;;;13.69;60.22;94871.53;5082721;28;20428;-73
2022/05/01 01:01:33;;;;;;;9.77;8.17;;;;;;;13.99;58.90;94865.78;5072610;28;20416;-73
2022/05/01 01:03:58;;;;;;;10.93;8.17;;;;;;;13.85;59.15;94854.50;5069250;28;20433;-72
2022/05/01 01:06:24;;;;;;;10.13;9.13;;;;;;;13.76;58.88;94861.81;5070590;28;20510;-72
2022/05/01 01:08:49;;;;;;;8.43;7.63;;;;;;;14.12;58.19;94860.44;5080622;28;20185;-73
2022/05/01 01:11:15;;;;;;;8.33;7.57;;;;;;;14.02;58.45;94862.72;5071531;28;20202;-73
2022/05/01 01:13:41;;;;;;;9.43;8.57;;;;;;;13.75;58.36;94862.03;5076218;28;20312;-73
2022/05/01 01:16:10;;;;;;;8.33;7.63;;;;;;;13.50;60.24;94861.91;5078398;28;20177;-73
2022/05/01 01:18:39;;;;;;;8.30;7.60;;;;;;;13.76;60.03;94864.44;5081553;28;20907;-73
2022/05/01 01:21:09;;;;;;;8.80;8.10;;;;;;;13.75;60.05;94856.75;5071582;28;20766;-74
2022/05/01 01:23:35;;;;;;;9.10;7.90;;;;;;;14.09;59.29;94858.22;5080166;28;20942;-73
2022/05/01 01:26:01;;;;;;;8.53;7.83;;;;;;;14.03;59.80;94851.97;5077115;28;20539;-73
2022/05/01 01:28:27;;;;;;;9.00;8.20;;;;;;;14.01;59.04;94840.06;5075024;28;20427;-73
2022/05/01 01:33:37;;;;;;;10.73;9.70;;;;;;;14.10;60.36;94841.41;5065136;28;20455;-73
2022/05/01 01:36:03;;;;;;;10.40;9.30;;;;;;;13.86;60.74;94846.38;5081587;28;20419;-73
2022/05/01 01:38:30;;;;;;;11.03;9.83;;;;;;;13.59;61.66;94840.44;5069103;28;20188;-73
2022/05/01 01:40:58;;;;;;;9.93;9.03;;;;;;;13.68;61.35;94838.38;5064788;28;20424;-73
2022/05/01 01:43:27;;;;;;;10.27;9.33;;;;;;;13.92;61.11;94843.94;5076152;28;21215;-73
2022/05/01 01:45:54;;;;;;;11.67;10.67;;;;;;;13.79;61.38;94837.75;5066738;28;20424;-73
2022/05/01 01:48:21;;;;;;;11.77;10.67;;;;;;;13.97;60.17;94838.88;5084801;28;20431;-73
2022/05/01 01:50:59;;;;;;;11.10;10.10;;;;;;;14.02;61.11;94839.03;5070652;28;20466;-73
2022/05/01 01:53:26;;;;;;;11.47;10.47;;;;;;;14.06;60.43;94837.59;5065225;28;20949;-73
2022/05/01 01:55:52;;;;;;;12.60;11.40;;;;;;;13.79;61.67;94844.81;5067403;28;20548;-73
2022/05/01 01:58:18;;;;;;;11.73;10.70;;;;;;;13.43;62.62;94841.72;5064321;28;20436;-72
2022/05/01 02:00:44;;;;;;;12.17;11.17;;;;;;;13.51;62.33;94843.31;5078227;28;20420;-73
2022/05/01 02:03:10;;;;;;;12.00;10.90;;;;;;;13.65;62.27;94836.16;5065413;28;20178;-73
2022/05/01 02:05:35;;;;;;;10.97;9.97;;;;;;;13.74;61.72;94842.00;5079924;28;20439;-73
2022/05/01 02:08:03;;;;;;;12.30;11.17;;;;;;;13.84;62.34;94835.25;5077263;28;20201;-73
2022/05/01 02:10:28;;;;;;;12.20;11.20;;;;;;;13.57;63.34;94850.34;5083455;28;20888;-72
2022/05/01 02:12:54;;;;;;;13.07;11.80;;;;;;;13.80;62.56;94836.69;5063991;28;20413;-74
2022/05/01 02:15:20;;;;;;;12.73;11.63;;;;;;;13.69;62.74;94837.34;5077840;28;20193;-73
2022/05/01 02:17:49;;;;;;;13.20;12.00;;;;;;;14.10;61.63;94827.47;5071830;28;20170;-73
2022/05/01 02:20:15;;;;;;;13.10;11.90;;;;;;;13.82;62.40;94847.81;5079657;28;20414;-73
2022/05/01 02:22:41;;;;;;;13.67;11.93;;;;;;;13.82;61.92;94841.75;5064540;28;20421;-73
2022/05/01 02:25:07;;;;;;;11.93;10.73;;;;;;;13.79;62.16;94848.25;5077115;28;20186;-73
2022/05/01 02:27:34;;;;;;;12.53;11.43;;;;;;;13.60;61.99;94846.50;5070612;28;20416;-73
2022/05/01 02:29:59;;;;;;;12.53;11.23;;;;;;;13.48;62.26;94848.97;5077238;28;20543;-73
2022/05/01 02:32:25;;;;;;;12.23;11.10;;;;;;;13.33;62.73;94838.69;5069312;28;20440;-74
2022/05/01 02:34:50;;;;;;;12.23;11.13;;;;;;;13.36;62.78;94838.28;5084615;28;20208;-73
2022/05/01 02:37:16;;;;;;;12.37;11.27;;;;;;;13.48;62.42;94844.50;5077450;28;20187;-74
2022/05/01 02:39:41;;;;;;;12.60;11.40;;;;;;;13.26;63.19;94837.88;5068024;28;20174;-73
2022/05/01 02:42:07;;;;;;;13.73;12.47;;;;;;;13.51;63.13;94837.22;5067579;28;20186;-72
2022/05/01 02:44:33;;;;;;;13.20;12.00;;;;;;;13.84;61.80;94831.84;5076365;28;20189;-74
2022/05/01 02:46:59;;;;;;;13.03;11.77;;;;;;;14.02;61.03;94828.53;5067021;28;20455;-73
2022/05/01 02:49:24;;;;;;;16.50;12.80;;;;;;;13.51;63.57;94834.59;5080707;28;20209;-74
2022/05/01 02:51:52;;;;;;;14.63;12.63;;;;;;;13.95;62.46;94827.75;5067555;28;20216;-73
2022/05/01 02:54:18;;;;;;;14.20;12.80;;;;;;;13.91;62.49;94822.09;5067409;28;20305;-73
2022/05/01 02:56:44;;;;;;;13.70;12.30;;;;;;;13.90;61.24;94825.72;5068085;28;20424;-73
2022/05/01 02:59:09;;;;;;;14.77;13.37;;;;;;;13.39;63.61;94840.50;5055967;28;20812;-73
2022/05/01 03:01:38;;;;;;;17.30;13.93;;;;;;;13.51;63.84;94837.22;5067832;28;20213;-73
2022/05/01 03:04:04;;;;;;;14.73;13.40;;;;;;;13.65;63.11;94836.16;5072850;28;20237;-73
2022/05/01 03:06:29;;;;;;;14.63;13.23;;;;;;;13.65;62.61;94833.53;5087923;28;20525;-73
2022/05/01 03:08:55;;;;;;;15.03;13.73;;;;;;;13.61;63.03;94829.72;5086329;28;20451;-73
2022/05/01 03:11:21;;;;;;;15.10;13.50;;;;;;;13.43;63.99;94836.44;5065705;28;20218;-73
2022/05/01 03:13:47;;;;;;;14.13;13.00;;;;;;;13.66;62.51;94835.97;5069912;28;20429;-73
2022/05/01 03:16:13;;;;;;;15.33;13.73;;;;;;;13.81;61.19;94843.59;5059126;28;20946;-73
2022/05/01 03:24:07;;;;;;;11.70;10.60;;;;;;;12.98;62.47;94846.81;5067214;28;20423;-72
2022/05/01 03:26:33;;;;;;;12.20;10.93;;;;;;;12.94;62.25;94848.25;5080110;28;20424;-72
2022/05/01 03:28:58;;;;;;;12.60;11.07;;;;;;;12.86;61.74;94851.88;5058848;28;20188;-73
2022/05/01 03:31:27;;;;;;;12.40;11.20;;;;;;;12.70;62.71;94868.03;5086535;28;20451;-72
2022/05/01 03:33:53;;;;;;;12.20;11.00;;;;;;;12.88;61.44;94860.38;5076131;28;20235;-73
2022/05/01 03:36:19;;;;;;;11.90;10.80;;;;;;;12.86;61.48;94865.03;5080364;28;20439;-73
2022/05/01 03:38:44;;;;;;;12.87;11.80;;;;;;;12.84;61.93;94868.84;5064284;28;20433;-73
2022/05/01 03:41:13;;;;;;;14.73;13.23;;;;;;;12.99;60.63;94872.06;5091590;28;20189;-72
2022/05/01 03:43:39;;;;;;;12.57;11.47;;;;;;;12.84;62.00;94880.19;5067837;28;20187;-72
2022/05/01 03:46:05;;;;;;;13.23;12.03;;;;;;;12.43;62.30;94882.97;5069855;28;20516;-73
2022/05/01 03:48:32;;;;;;;12.67;10.57;;;;;;;12.45;62.40;94886.19;5081642;28;20204;-72
2022/05/01 03:50:58;;;;;;;13.23;12.00;;;;;;;12.70;61.74;94884.59;5065072;28;20576;-72
2022/05/01 03:53:24;;;;;;;12.30;11.00;;;;;;;12.87;61.18;94884.22;5062069;28;20520;-72
2022/05/01 03:55:51;;;;;;;10.90;9.80;;;;;;;13.03;61.12;94881.19;5066772;28;20548;-73
2022/05/01 03:58:17;;;;;;;11.30;10.30;;;;;;;12.86;61.97;94882.56;5081395;28;20475;-73
2022/05/01 04:00:47;;;;;;;11.63;10.53;;;;;;;12.91;61.91;94889.88;5074472;28;20420;-73
2022/05/01 04:03:16;;;;;;;12.47;10.93;;;;;;;12.91;61.50;94901.19;5086911;28;20431;-73
2022/05/01 04:05:43;;;;;;;13.03;11.83;;;;;;;12.92;61.66;94894.94;5074472;28;20464;-73
2022/05/01 04:08:09;;;;;;;12.13;10.90;;;;;;;13.10;61.17;94902.19;5080868;28;20432;-73
2022/05/01 04:10:41;;;;;;;11.67;10.57;;;;;;;13.38;59.76;94896.72;5067379;28;20501;-73
2022/05/01 04:13:06;;;;;;;13.03;11.67;;;;;;;12.96;60.59;94898.75;5067561;28;20432;-73
2022/05/01 04:15:32;;;;;;;13.20;11.87;;;;;;;12.94;61.13;94910.47;5065845;28;20449;-72
2022/05/01 04:17:58;;;;;;;14.20;12.80;;;;;;;13.18;60.72;94907.22;5067819;28;20195;-73
2022/05/01 04:20:25;;;;;;;13.07;11.70;;;;;;;13.39;59.87;94903.59;5065451;28;20441;-72
2022/05/01 04:22:50;;;;;;;12.27;11.07;;;;;;;13.51;59.81;94905.56;5065879;28;20175;-73
2022/05/01 04:25:21;;;;;;;12.40;11.20;;;;;;;13.64;59.33;94905.56;5082945;28;21076;-73
2022/05/01 04:27:51;;;;;;;13.17;11.83;;;;;;;13.72;59.35;94902.72;5084976;28;20170;-73
2022/05/01 04:30:16;;;;;;;13.97;12.67;;;;;;;13.64;59.71;94910.84;5069221;28;20459;-73
2022/05/01 04:32:53;;;;;;;12.83;11.63;;;;;;;13.58;60.35;94914.25;5080647;28;20473;-73
2022/05/01 04:35:31;;;;;;;16.80;13.80;;;;;;;13.39;61.18;94898.34;5054371;28;20192;-73
2022/05/01 04:38:01;;;;;;;17.23;12.70;;;;;;;13.90;60.08;94901.22;5074756;28;20416;-72
2022/05/01 04:40:28;;;;;;;14.50;13.20;;;;;;;13.83;59.72;94909.16;5065430;28;20459;-73
2022/05/01 04:43:01;;;;;;;16.27;14.67;;;;;;;13.88;60.19;94905.88;5065044;28;20424;-73
2022/05/01 04:45:28;;;;;;;14.43;12.73;;;;;;;14.27;58.47;94904.09;5050575;28;20436;-73
2022/05/01 04:47:54;;;;;;;14.97;13.50;;;;;;;14.64;57.39;94895.41;5065540;28;20435;-73
2022/05/01 04:50:19;;;;;;;16.93;14.27;;;;;;;14.79;58.33;94889.00;5067179;28;20460;-74
2022/05/01 04:52:44;;;;;;;14.20;12.80;;;;;;;14.88;57.18;94884.28;5067865;28;20231;-73
2022/05/01 04:55:10;;;;;;;14.57;13.17;;;;;;;15.03;57.29;94882.94;5073178;28;20221;-73
2022/05/01 04:57:38;;;;;;;15.60;14.00;;;;;;;15.43;55.75;94885.19;5060038;28;20205;-73
2022/05/01 05:00:05;;;;;;;15.10;13.70;;;;;;;15.12;56.53;94893.19;5077319;28;20186;-74
2022/05/01 05:02:39;;;;;;;15.77;14.17;;;;;;;15.08;56.86;94890.22;5073518;28;20492;-73
2022/05/01 05:05:06;;;;;;;14.97;13.47;;;;;;;15.42;56.40;94890.69;5076263;28;20497;-74
2022/05/01 05:07:32;;;;;;;14.63;13.27;;;;;;;15.62;56.00;94895.78;5066903;28;20444;-73
2022/05/01 05:09:58;;;;;;;13.97;12.50;;;;;;;15.81;55.48;94894.78;5078330;28;20467;-73
2022/05/01 05:12:24;;;;;;;14.87;13.37;;;;;;;15.87;55.12;94898.34;5073540;28;20192;-73
2022/05/01 05:14:52;;;;;;;14.93;13.60;;;;;;;15.85;54.92;94900.41;5072700;28;20451;-74
2022/05/01 05:17:22;;;;;;;15.20;13.77;;;;;;;15.61;55.51;94900.25;5077428;28;20182;-73
2022/05/01 05:19:48;;;;;;;14.40;13.10;;;;;;;15.53;55.56;94902.34;5078096;28;20424;-73
2022/05/01 05:22:14;;;;;;;15.70;14.00;;;;;;;15.78;55.32;94905.78;5057803;28;20481;-73
2022/05/01 05:24:40;;;;;;;14.40;13.17;;;;;;;16.11;54.64;94903.78;5067620;28;20440;-73
2022/05/01 05:27:05;;;;;;;15.90;14.60;;;;;;;15.92;55.07;94900.34;5069647;28;20425;-73
2022/05/01 05:29:31;;;;;;;15.23;13.87;;;;;;;16.00;55.00;94900.03;5070531;28;20179;-73
2022/05/01 05:31:56;;;;;;;14.70;13.27;;;;;;;16.18;54.72;94904.47;5081046;28;20174;-73
2022/05/01 05:34:22;;;;;;;14.03;12.83;;;;;;;15.80;55.78;94909.00;5082690;28;20246;-73
2022/05/01 05:36:48;;;;;;;14.63;13.23;;;;;;;16.30;54.56;94912.47;5084300;28;20181;-74
2022/05/01 05:39:13;;;;;;;15.23;13.63;;;;;;;16.17;54.95;94914.25;5068832;28;20178;-74
2022/05/01 05:41:39;;;;;;;16.23;14.53;;;;;;;16.06;55.53;94907.06;5055866;28;20212;-74
2022/05/01 05:44:05;;;;;;;13.47;12.20;;;;;;;15.91;55.64;94906.66;5069534;28;20185;-73
2022/05/01 05:46:30;;;;;;;16.93;15.13;;;;;;;16.37;54.87;94900.78;5080273;28;20256;-73
2022/05/01 05:48:56;;;;;;;15.83;14.40;;;;;;;16.06;55.37;94907.06;5069927;28;20432;-73
2022/05/01 05:51:22;;;;;;;14.50;13.00;;;;;;;15.89;55.55;94906.06;5068116;28;20194;-73
2022/05/01 05:53:50;;;;;;;14.70;13.20;;;;;;;15.40;57.58;94904.13;5072975;28;20213;-73
2022/05/01 05:56:15;;;;;;;14.37;11.80;;;;;;;15.97;56.01;94909.22;5067954;28;20229;-73
2022/05/01 05:58:41;;;;;;;26.20;13.37;;;;;;;16.15;55.42;94910.22;5081261;28;20431;-73
2022/05/01 06:01:06;;;;;;;15.20;13.70;;;;;;;16.09;55.86;94900.56;5073748;28;20631;-73
2022/05/01 06:03:32;;;;;;;14.50;13.20;;;;;;;16.17;55.87;94914.25;5065205;28;20270;-73
2022/05/01 06:05:57;;;;;;;14.73;13.20;;;;;;;17.00;52.92;94916.38;5081914;28;20189;-73
2022/05/01 06:08:23;;;;;;;13.63;12.30;;;;;;;16.93;53.13;94912.00;5076665;28;20185;-73
2022/05/01 06:10:48;;;;;;;13.17;11.87;;;;;;;16.50;54.60;94913.00;5069266;28;20214;-73
2022/05/01 06:13:13;;;;;;;13.23;11.93;;;;;;;16.77;54.32;94921.38;5076672;28;20193;-74
2022/05/01 06:15:39;;;;;;;15.90;12.90;;;;;;;16.49;54.17;94915.88;5072208;28;20182;-73
2022/05/01 06:18:04;;;;;;;13.20;11.53;;;;;;;16.49;54.30;94914.03;5083372;28;20181;-73
2022/05/01 06:20:30;;;;;;;13.43;12.07;;;;;;;16.39;55.04;94911.13;5085995;28;20206;-73
2022/05/01 06:22:56;;;;;;;12.63;11.50;;;;;;;17.17;52.60;94917.34;5087830;28;20200;-73
2022/05/01 06:25:22;;;;;;;12.10;10.90;;;;;;;16.56;54.41;94911.28;5087663;28;21140;-73
2022/05/01 06:27:47;;;;;;;12.37;10.97;;;;;;;16.57;54.41;94913.72;5066825;28;20430;-73
2022/05/01 06:30:13;;;;;;;12.47;11.23;;;;;;;17.00;53.51;94913.72;5084705;28;20206;-73
2022/05/01 06:32:40;;;;;;;11.73;10.20;;;;;;;16.96;53.17;94910.75;5067782;28;20246;-73
2022/05/01 06:35:07;;;;;;;11.90;10.83;;;;;;;16.79;53.85;94910.56;5077712;28;20241;-73
2022/05/01 06:37:35;;;;;;;12.47;11.37;;;;;;;17.53;51.52;94916.31;5095953;28;20446;-73
2022/05/01 06:40:01;;;;;;;11.77;10.70;;;;;;;17.95;50.52;94915.38;5067739;28;20425;-74
2022/05/01 06:42:28;;;;;;;12.27;11.07;;;;;;;17.24;52.51;94917.22;5067633;28;20429;-74
2022/05/01 06:44:54;;;;;;;13.33;11.97;;;;;;;17.31;52.27;94907.34;5068195;28;20424;-73
2022/05/01 06:47:19;;;;;;;12.27;11.27;;;;;;;17.58;51.24;94906.88;5087028;28;20420;-73
2022/05/01 06:49:45;;;;;;;12.17;10.97;;;;;;;17.07;53.09;94911.78;5073870;28;20235;-73
2022/05/01 06:52:10;;;;;;;12.93;11.50;;;;;;;17.59;51.92;94904.00;5067204;28;20197;-73
2022/05/01 06:54:35;;;;;;;11.60;10.60;;;;;;;17.78;51.00;94911.81;5087487;28;20232;-74
2022/05/01 06:57:01;;;;;;;11.60;10.50;;;;;;;17.87;50.53;94910.41;5083253;28;20181;-73
2022/05/01 06:59:26;;;;;;;10.40;9.50;;;;;;;17.68;50.91;94902.59;5075835;28;20182;-73
2022/05/01 07:01:52;;;;;;;14.23;9.67;;;;;;;18.16;49.37;94902.53;5073257;28;20174;-73
2022/05/01 07:04:17;;;;;;;10.00;9.20;;;;;;;18.48;47.94;94893.09;5081324;28;20211;-73
2022/05/01 07:06:43;;;;;;;14.37;9.80;;;;;;;18.50;48.15;94898.16;5067139;28;20221;-73
2022/05/01 07:09:09;;;;;;;14.13;10.30;;;;;;;18.20;48.42;94904.47;5070109;28;20178;-73
2022/05/01 07:11:34;;;;;;;11.40;10.30;;;;;;;18.36;48.25;94892.31;5081621;28;20459;-73
2022/05/01 07:14:00;;;;;;;10.83;8.80;;;;;;;18.26;48.40;94889.47;5081962;28;20182;-73
2022/05/01 07:16:25;;;;;;;12.70;9.80;;;;;;;18.06;48.47;94898.66;5087324;28;20261;-73
2022/05/01 07:18:51;;;;;;;9.83;9.00;;;;;;;18.53;47.41;94893.19;5083435;28;20181;-73
2022/05/01 07:21:17;;;;;;;10.83;9.73;;;;;;;18.04;49.02;94899.91;5083273;28;20178;-73
2022/05/01 07:23:43;;;;;;;9.93;8.83;;;;;;;19.13;45.89;94900.81;5085646;28;20178;-73
2022/05/01 07:26:08;;;;;;;7.57;6.90;;;;;;;19.02;44.95;94900.66;5066961;28;20432;-73
2022/05/01 07:28:34;;;;;;;8.97;8.07;;;;;;;18.06;47.34;94897.81;5078397;28;20181;-74
2022/05/01 07:31:01;;;;;;;10.30;9.30;;;;;;;18.20;47.07;94895.72;5069903;28;20202;-73
2022/05/01 07:33:26;;;;;;;7.97;7.27;;;;;;;18.55;47.17;94890.28;5083180;28;20925;-74
2022/05/01 07:35:52;;;;;;;10.07;9.13;;;;;;;18.91;46.55;94890.91;5073146;28;20416;-73
2022/05/01 07:38:17;;;;;;;9.07;7.33;;;;;;;18.29;47.38;94887.16;5074972;28;20614;-73
2022/05/01 07:40:43;;;;;;;8.77;7.90;;;;;;;18.45;46.69;94890.91;5071766;28;20180;-73
2022/05/01 07:43:10;;;;;;;9.20;8.40;;;;;;;18.83;46.04;94891.31;5074847;28;20198;-73
2022/05/01 07:45:35;;;;;;;8.73;7.93;;;;;;;18.68;46.43;94892.63;5073267;28;20177;-73
2022/05/01 07:48:01;;;;;;;9.30;8.50;;;;;;;18.85;45.38;94900.63;5094650;28;20463;-73
2022/05/01 07:50:27;;;;;;;8.40;7.67;;;;;;;18.79;44.55;94893.63;5079321;28;20198;-73
2022/05/01 07:52:53;;;;;;;7.93;7.13;;;;;;;18.77;44.80;94898.34;5077554;28;20182;-73
2022/05/01 07:55:19;;;;;;;8.17;7.40;;;;;;;18.80;44.21;94903.22;5073225;28;20847;-74
2022/05/01 07:57:45;;;;;;;8.77;7.87;;;;;;;19.11;43.56;94896.56;5050362;28;20634;-73
2022/05/01 08:00:13;;;;;;;8.93;8.07;;;;;;;18.75;44.10;94891.69;5070390;28;20178;-74
2022/05/01 08:05:23;;;;;;;8.67;7.97;;;;;;;19.69;42.56;94883.88;5069912;28;20399;-73
2022/05/01 08:07:52;;;;;;;8.97;8.20;;;;;;;20.18;41.18;94885.00;5072364;28;20485;-74
2022/05/01 08:10:18;;;;;;;9.20;7.83;;;;;;;20.52;40.17;94884.84;5065859;28;20471;-73
2022/05/01 08:12:44;;;;;;;8.03;6.87;;;;;;;20.61;39.38;94888.69;5071600;28;20935;-72
2022/05/01 08:15:09;;;;;;;7.93;7.33;;;;;;;21.11;38.42;94887.53;5075891;28;20420;-73
2022/05/01 08:17:35;;;;;;;7.83;7.07;;;;;;;21.25;38.54;94882.59;5058765;28;20171;-73
2022/05/01 08:23:08;;;;;;;7.23;6.60;;;;;;;20.55;38.13;94884.34;5032194;28;20222;-74
2022/05/01 08:25:34;;;;;;;7.47;6.87;;;;;;;21.08;37.14;94882.72;5076500;28;20449;-74
2022/05/01 08:28:00;;;;;;;5.93;5.53;;;;;;;20.92;36.40;94878.31;5074335;28;20436;-73
2022/05/01 08:30:26;;;;;;;8.90;6.70;;;;;;;20.95;37.05;94878.63;5074699;28;20456;-73
2022/05/01 08:32:52;;;;;;;7.17;6.57;;;;;;;21.11;36.79;94876.88;5076695;28;20508;-74
2022/05/01 08:35:17;;;;;;;6.60;6.10;;;;;;;20.81;36.37;94867.63;5054269;28;20831;-74
2022/05/01 08:37:43;;;;;;;6.13;5.73;;;;;;;21.23;34.72;94864.22;5073129;28;20428;-74
2022/05/01 08:40:09;;;;;;;5.17;4.87;;;;;;;21.19;34.68;94863.13;5059067;28;20372;-73
2022/05/01 08:42:38;;;;;;;6.23;5.63;;;;;;;21.78;33.14;94859.50;5076930;28;20205;-74
2022/05/01 08:45:08;;;;;;;5.07;4.77;;;;;;;21.66;32.56;94860.75;5079356;28;20431;-75
2022/05/01 08:47:53;;;;;;;5.70;5.20;;;;;;;22.28;32.34;94859.97;5078322;28;20459;-75
2022/05/01 08:50:19;;;;;;;5.27;4.83;;;;;;;21.61;33.72;94850.88;5081121;28;20465;-75
2022/05/01 08:52:47;;;;;;;5.20;4.80;;;;;;;21.49;33.85;94858.25;5071868;28;20436;-75
2022/05/01 08:55:14;;;;;;;6.00;5.60;;;;;;;22.08;33.41;94854.53;5059280;28;20504;-75
2022/05/01 08:57:40;;;;;;;5.80;5.40;;;;;;;22.87;31.93;94848.06;5067199;28;20424;-75
2022/05/01 09:00:07;;;;;;;4.97;4.53;;;;;;;22.26;32.43;94848.78;5079414;28;20411;-75
2022/05/01 09:02:34;;;;;;;4.83;4.53;;;;;;;21.31;32.63;94854.16;5074910;28;20170;-75
2022/05/01 09:04:59;;;;;;;5.00;3.07;;;;;;;21.35;32.59;94860.56;5073301;28;20445;-75
2022/05/01 09:07:25;;;;;;;4.27;4.07;;;;;;;20.91;33.87;94844.81;5083937;28;20427;-75
2022/05/01 09:09:51;;;;;;;5.00;4.60;;;;;;;21.52;32.88;94849.78;5074052;28;20176;-75
2022/05/01 09:15:04;;;;;;;5.23;4.90;;;;;;;21.96;31.81;94836.91;5081678;28;20565;-75
2022/05/01 09:17:29;;;;;;;4.33;4.03;;;;;;;21.74;32.36;94836.28;5077608;28;20413;-75
2022/05/01 09:20:09;;;;;;;3.50;3.20;;;;;;;21.28;32.23;94828.81;5076054;28;20432;-75
2022/05/01 09:22:52;;;;;;;4.87;4.37;;;;;;;21.22;31.94;94820.00;5077131;28;20980;-75
2022/05/01 09:25:19;;;;;;;6.00;4.50;;;;;;;21.76;32.37;94823.50;5063152;28;20431;-75
2022/05/01 09:27:45;;;;;;;3.10;2.90;;;;;;;20.89;33.00;94826.44;5060951;28;20428;-74
2022/05/01 09:30:13;;;;;;;4.93;4.07;;;;;;;22.20;31.09;94818.59;5070133;28;20465;-75
2022/05/01 09:32:41;;;;;;;3.47;3.27;;;;;;;22.57;30.06;94811.50;5072602;28;20304;-74
2022/05/01 09:35:12;;;;;;;4.73;4.20;;;;;;;23.11;30.14;94816.31;5075942;28;20436;-75
2022/05/01 09:37:38;;;;;;;4.83;4.43;;;;;;;22.90;29.86;94820.06;5063863;28;20432;-74
2022/05/01 09:40:04;;;;;;;4.20;3.83;;;;;;;22.92;29.54;94812.56;5064642;28;20429;-75
2022/05/01 09:42:34;;;;;;;4.13;3.77;;;;;;;23.04;29.39;94807.00;5071502;28;20186;-74
2022/05/01 09:45:06;;;;;;;3.57;3.23;;;;;;;22.53;29.12;94797.88;5071998;28;20431;-74
2022/05/01 09:47:39;;;;;;;4.37;2.90;;;;;;;23.28;28.55;94797.34;5068219;28;20504;-75
2022/05/01 09:50:06;;;;;;;3.43;3.23;;;;;;;23.55;27.65;94788.97;5067958;28;20464;-74
2022/05/01 09:52:55;;;;;;;3.10;2.90;;;;;;;24.53;25.97;94783.19;5078702;28;20447;-75
2022/05/01 09:55:21;;;;;;;3.70;3.37;;;;;;;24.84;25.45;94791.78;5067137;28;20508;-75
2022/05/01 09:57:47;;;;;;;2.83;2.70;;;;;;;24.14;25.63;94786.63;5083112;28;20481;-74
2022/05/01 10:00:13;;;;;;;3.63;2.80;;;;;;;24.18;26.02;94774.28;5061248;28;20496;-74
2022/05/01 10:02:38;;;;;;;3.77;2.97;;;;;;;25.44;24.84;94778.13;5078289;28;20205;-74
2022/05/01 10:05:08;;;;;;;2.73;2.63;;;;;;;25.00;25.35;94784.41;5074335;28;20424;-74
2022/05/01 10:07:37;;;;;;;3.20;2.80;;;;;;;23.45;26.87;94777.50;5067142;28;20178;-74
2022/05/01 10:10:08;;;;;;;2.80;2.60;;;;;;;24.28;25.81;94774.22;5085539;28;20456;-75
2022/05/01 10:12:41;;;;;;;2.53;2.33;;;;;;;25.20;24.10;94771.91;5068242;28;20432;-74
2022/05/01 10:15:08;;;;;;;2.30;2.00;;;;;;;25.16;23.49;94766.31;5071964;28;20429;-75
2022/05/01 10:17:35;;;;;;;2.73;2.53;;;;;;;24.84;24.35;94761.53;5084916;28;20420;-74
2022/05/01 10:20:03;;;;;;;3.03;2.70;;;;;;;24.86;24.24;94767.41;5072457;28;20421;-75
2022/05/01 10:22:29;;;;;;;3.87;2.17;;;;;;;24.87;24.22;94758.28;5049403;28;20432;-74
2022/05/01 10:24:55;;;;;;;2.17;2.07;;;;;;;25.38;23.89;94752.44;5067000;28;20428;-75
2022/05/01 10:27:34;;;;;;;3.23;3.03;;;;;;;24.41;24.98;94750.59;5066342;28;20966;-75
2022/05/01 10:33:15;;;;;;;3.03;2.33;;;;;;;24.49;24.77;94741.97;5071371;28;20480;-75
2022/05/01 10:36:10;;;;;;;2.10;2.00;;;;;;;24.09;24.28;94743.84;5063976;28;20418;-74
2022/05/01 10:38:44;;;;;;;2.57;2.37;;;;;;;25.16;22.71;94738.75;5076300;28;20444;-75
2022/05/01 10:41:11;;;;;;;1.90;1.80;;;;;;;25.36;22.34;94743.09;5065771;28;20460;-75
2022/05/01 10:43:38;;;;;;;2.60;2.03;;;;;;;25.76;22.19;94732.97;5066474;28;20844;-75
2022/05/01 10:46:05;;;;;;;2.60;2.40;;;;;;;25.25;23.04;94729.81;5079796;28;20450;-74
2022/05/01 10:48:33;;;;;;;2.50;2.30;;;;;;;24.91;23.70;94732.56;5087270;28;20420;-74
2022/05/01 10:51:39;;;;;;;4.50;2.70;;;;;;;24.56;24.57;94721.06;5087105;28;20459;-75
2022/05/01 10:54:10;;;;;;;2.63;2.27;;;;;;;25.17;24.05;94719.69;5060333;28;20424;-75
2022/05/01 10:56:41;;;;;;;2.27;2.17;;;;;;;24.86;24.42;94719.22;5066395;28;20414;-74
2022/05/01 10:59:33;;;;;;;2.50;2.30;;;;;;;23.15;25.41;94723.94;5066561;28;20529;-74
2022/05/01 11:02:22;;;;;;;3.93;2.93;;;;;;;24.02;24.41;94721.97;5095744;28;20429;-74
2022/05/01 11:04:49;;;;;;;2.27;2.17;;;;;;;25.16;23.17;94709.28;5069733;28;20434;-75
2022/05/01 11:07:17;;;;;;;2.33;2.23;;;;;;;24.91;23.41;94716.50;5066287;28;20444;-75
2022/05/01 11:09:45;;;;;;;2.70;2.50;;;;;;;24.43;24.66;94710.97;5078683;28;20434;-75
2022/05/01 11:12:14;;;;;;;1.90;1.80;;;;;;;24.82;24.21;94702.13;5048394;28;21093;-75
2022/05/01 11:14:49;;;;;;;2.80;2.60;;;;;;;24.63;24.91;94707.38;5070188;28;20437;-74
2022/05/01 11:17:15;;;;;;;3.30;2.50;;;;;;;24.15;25.46;94699.97;5068834;28;20478;-75
2022/05/01 11:19:46;;;;;;;2.87;2.67;;;;;;;24.20;24.61;94699.91;5081333;28;20467;-75
2022/05/01 11:22:14;;;;;;;2.70;2.13;;;;;;;23.82;24.73;94702.28;5073939;28;20424;-74
2022/05/01 11:24:42;;;;;;;2.30;2.10;;;;;;;23.90;24.67;94700.91;5072513;28;20424;-75
2022/05/01 11:27:10;;;;;;;2.13;2.03;;;;;;;23.37;25.00;94699.56;5076767;28;20507;-74
2022/05/01 11:29:37;;;;;;;2.40;2.20;;;;;;;22.47;26.70;94699.47;5065608;28;20459;-74
2022/05/01 11:32:19;;;;;;;2.67;2.47;;;;;;;22.40;26.84;94689.88;5073477;28;20459;-74
2022/05/01 11:34:50;;;;;;;4.00;3.70;;;;;;;23.14;26.03;94697.50;5079553;28;21248;-75
2022/05/01 11:37:15;;;;;;;3.70;2.53;;;;;;;22.97;26.27;94687.91;5069134;28;20444;-75
2022/05/01 11:39:50;;;;;;;2.93;2.73;;;;;;;22.93;26.21;94683.38;5055910;28;20439;-74
2022/05/01 11:42:25;;;;;;;3.00;2.80;;;;;;;23.89;25.21;94678.75;5075423;28;20178;-74
2022/05/01 11:44:55;;;;;;;2.53;2.43;;;;;;;23.63;25.34;94678.06;5065374;28;20466;-74
2022/05/01 11:47:25;;;;;;;2.77;2.57;;;;;;;23.73;25.74;94672.66;5065465;28;20979;-75
2022/05/01 11:49:51;;;;;;;2.93;2.73;;;;;;;22.56;27.49;94671.97;5078853;28;20436;-75
2022/05/01 11:52:17;;;;;;;2.70;2.50;;;;;;;22.92;27.11;94679.91;5053321;28;20424;-75